createdAt,value
2023-05-09T00:01:24.647Z,13.70
2023-05-09T00:03:52.201Z,13.70
2023-05-09T00:06:19.755Z,13.70
2023-05-09T00:08:46.980Z,13.70
2023-05-09T00:11:13.887Z,13.70
2023-05-09T00:13:41.864Z,13.70
2023-05-09T00:16:10.473Z,13.70
2023-05-09T00:18:37.575Z,13.70
2023-05-09T00:21:04.410Z,13.70
2023-05-09T00:23:31.222Z,13.70
2023-05-09T00:25:59.293Z,13.80
2023-05-09T00:28:25.979Z,13.90
2023-05-09T00:30:52.736Z,13.80
2023-05-09T00:33:20.569Z,13.90
2023-05-09T00:35:50.289Z,13.90
2023-05-09T00:38:16.895Z,13.90
2023-05-09T00:40:43.557Z,13.90
2023-05-09T00:43:10.236Z,13.90
2023-05-09T00:45:36.979Z,13.90
2023-05-09T00:48:03.790Z,13.90
2023-05-09T00:50:31.543Z,13.90
2023-05-09T00:52:59.055Z,13.90
2023-05-09T00:55:27.172Z,13.90
2023-05-09T00:57:53.834Z,13.90
2023-05-09T01:00:20.546Z,13.90
2023-05-09T01:02:53.011Z,13.90
2023-05-09T01:05:21.250Z,13.90
2023-05-09T01:08:15.390Z,13.90
2023-05-09T01:11:25.563Z,13.90
2023-05-09T01:14:00.976Z,13.90
2023-05-09T01:17:02.132Z,13.80
2023-05-09T01:20:24.483Z,13.80
2023-05-09T01:23:09.280Z,13.80
2023-05-09T01:25:38.575Z,13.90
2023-05-09T01:28:16.797Z,13.90
2023-05-09T01:30:46.754Z,13.80
2023-05-09T01:33:20.304Z,13.60
2023-05-09T01:35:53.792Z,13.50
2023-05-09T01:38:25.368Z,13.40
2023-05-09T01:40:54.634Z,13.20
2023-05-09T01:43:25.166Z,13.10
2023-05-09T01:45:53.465Z,12.90
2023-05-09T01:48:22.119Z,12.80
2023-05-09T01:50:52.507Z,12.80
2023-05-09T01:53:19.880Z,12.80
2023-05-09T01:55:48.360Z,12.70
2023-05-09T01:58:16.560Z,12.50
2023-05-09T02:00:44.258Z,12.40
2023-05-09T02:03:11.687Z,12.40
2023-05-09T02:05:39.766Z,12.40
2023-05-09T02:08:11.431Z,12.40
2023-05-09T02:10:38.401Z,12.30
2023-05-09T02:13:13.867Z,12.30
2023-05-09T02:15:44.110Z,12.30
2023-05-09T02:18:13.014Z,12.30
2023-05-09T02:20:40.672Z,12.30
2023-05-09T02:23:07.425Z,12.30
2023-05-09T02:25:34.640Z,12.30
2023-05-09T02:28:02.472Z,12.30
2023-05-09T02:30:37.297Z,12.30
2023-05-09T02:33:07.102Z,12.20
2023-05-09T02:35:35.277Z,12.10
2023-05-09T02:38:02.415Z,12.10
2023-05-09T02:40:30.488Z,12.10
2023-05-09T02:42:57.649Z,12.10
2023-05-09T02:45:24.603Z,12.00
2023-05-09T02:47:51.275Z,12.10
2023-05-09T02:50:18.004Z,12.20
2023-05-09T02:52:47.086Z,12.30
2023-05-09T02:55:13.904Z,12.40
2023-05-09T02:57:40.825Z,12.40
2023-05-09T03:00:11.509Z,12.40
2023-05-09T03:02:44.407Z,12.30
2023-05-09T03:05:11.526Z,12.10
2023-05-09T03:07:38.261Z,12.00
2023-05-09T03:10:05.934Z,12.00
2023-05-09T03:12:32.560Z,11.90
2023-05-09T03:14:59.247Z,11.80
2023-05-09T03:17:28.312Z,11.80
2023-05-09T03:19:57.085Z,11.70
2023-05-09T03:22:23.845Z,11.60
2023-05-09T03:24:51.026Z,11.50
2023-05-09T03:27:17.724Z,11.50
2023-05-09T03:29:44.427Z,11.50
2023-05-09T03:32:11.665Z,11.50
2023-05-09T03:34:39.649Z,11.40
2023-05-09T03:37:06.528Z,11.30
2023-05-09T03:39:35.348Z,11.30
2023-05-09T03:42:01.995Z,11.40
2023-05-09T03:44:28.800Z,11.40
2023-05-09T03:46:55.526Z,11.40
2023-05-09T03:49:22.235Z,11.40
2023-05-09T03:51:48.899Z,11.50
2023-05-09T03:54:15.826Z,11.50
2023-05-09T03:56:42.472Z,11.50
2023-05-09T03:59:09.111Z,11.40
2023-05-09T04:01:36.892Z,11.20
2023-05-09T04:04:04.679Z,11.10
2023-05-09T04:06:31.445Z,11.00
2023-05-09T04:09:01.114Z,11.00
2023-05-09T04:11:27.817Z,10.90
2023-05-09T04:13:54.883Z,11.00
2023-05-09T04:16:21.728Z,11.00
2023-05-09T04:18:48.405Z,11.10
2023-05-09T04:21:15.042Z,11.30
2023-05-09T04:23:43.585Z,11.40
2023-05-09T04:26:12.223Z,11.60
2023-05-09T04:28:38.903Z,11.70
2023-05-09T04:31:08.933Z,11.90
2023-05-09T04:33:36.392Z,12.00
2023-05-09T04:36:03.093Z,12.00
2023-05-09T04:38:29.716Z,12.10
2023-05-09T04:40:56.463Z,12.30
2023-05-09T04:43:23.148Z,12.40
2023-05-09T04:45:49.839Z,12.60
2023-05-09T04:48:16.460Z,12.80
2023-05-09T04:50:43.262Z,13.00
2023-05-09T04:53:10.993Z,13.20
2023-05-09T04:55:37.881Z,13.30
2023-05-09T04:58:04.629Z,13.50
2023-05-09T05:00:31.362Z,13.60
2023-05-09T05:02:58.053Z,13.80
2023-05-09T05:05:25.631Z,14.00
2023-05-09T05:07:54.135Z,14.30
2023-05-09T05:10:20.790Z,14.50
2023-05-09T05:12:47.496Z,14.70
2023-05-09T05:15:14.443Z,15.20
2023-05-09T05:17:41.314Z,15.60
2023-05-09T05:20:11.105Z,15.90
2023-05-09T05:22:38.087Z,16.30
2023-05-09T05:25:05.367Z,16.50
2023-05-09T05:27:34.774Z,16.50
2023-05-09T05:30:01.456Z,16.50
2023-05-09T05:32:28.130Z,16.50
2023-05-09T05:34:54.818Z,16.50
2023-05-09T05:37:21.497Z,16.40
2023-05-09T05:39:48.207Z,16.40
2023-05-09T05:42:14.944Z,16.40
2023-05-09T05:44:41.593Z,16.30
2023-05-09T05:47:08.414Z,16.30
2023-05-09T05:49:35.049Z,16.30
2023-05-09T05:52:01.655Z,16.40
2023-05-09T05:54:28.343Z,16.50
2023-05-09T05:56:55.287Z,16.50
2023-05-09T05:59:23.306Z,16.50
2023-05-09T06:01:49.961Z,16.50
2023-05-09T06:04:16.920Z,16.60
2023-05-09T06:06:43.849Z,16.80
2023-05-09T06:09:10.591Z,16.80
2023-05-09T06:11:37.402Z,16.80
2023-05-09T06:14:04.064Z,16.80
2023-05-09T06:16:30.815Z,17.10
2023-05-09T06:18:57.520Z,17.30
2023-05-09T06:21:24.264Z,17.50
2023-05-09T06:24:06.542Z,17.60
2023-05-09T06:26:37.198Z,17.90
2023-05-09T06:29:06.235Z,18.00
2023-05-09T06:31:35.733Z,18.10
2023-05-09T06:34:02.442Z,18.30
2023-05-09T06:36:29.133Z,18.40
2023-05-09T06:38:56.111Z,18.30
2023-05-09T06:41:22.725Z,18.50
2023-05-09T06:43:50.028Z,18.70
2023-05-09T06:46:16.829Z,18.80
2023-05-09T06:48:43.631Z,19.00
2023-05-09T06:51:11.390Z,18.80
2023-05-09T06:53:38.556Z,18.60
2023-05-09T06:56:06.213Z,18.20
2023-05-09T06:58:32.933Z,18.10
2023-05-09T07:00:59.711Z,17.80
2023-05-09T07:03:26.712Z,17.70
2023-05-09T07:05:58.868Z,17.60
2023-05-09T07:08:26.697Z,17.60
2023-05-09T07:10:53.446Z,17.70
2023-05-09T07:13:20.184Z,17.90
2023-05-09T07:15:46.887Z,18.00
2023-05-09T07:18:13.547Z,18.00
2023-05-09T07:20:40.300Z,18.00
2023-05-09T07:23:07.050Z,18.10
2023-05-09T07:25:33.687Z,18.10
2023-05-09T07:28:00.425Z,18.20
2023-05-09T07:30:27.312Z,18.00
2023-05-09T07:32:54.035Z,17.80
2023-05-09T07:35:21.018Z,17.70
2023-05-09T07:37:47.686Z,17.60
2023-05-09T07:40:15.033Z,17.60
2023-05-09T07:42:45.053Z,17.60
2023-05-09T07:45:11.950Z,17.90
2023-05-09T07:47:38.767Z,17.90
2023-05-09T07:50:06.325Z,17.90
2023-05-09T07:52:33.058Z,17.70
2023-05-09T07:54:59.790Z,17.70
2023-05-09T07:57:26.650Z,17.60
2023-05-09T07:59:53.267Z,17.40
2023-05-09T08:02:20.092Z,17.30
2023-05-09T08:04:49.099Z,17.50
2023-05-09T08:07:18.719Z,17.50
2023-05-09T08:09:45.525Z,17.70
2023-05-09T08:12:19.430Z,17.60
2023-05-09T08:14:46.827Z,17.60
2023-05-09T08:17:13.494Z,17.60
2023-05-09T08:19:40.151Z,17.80
2023-05-09T08:22:06.767Z,17.90
2023-05-09T08:24:33.387Z,18.10
2023-05-09T08:27:00.556Z,18.10
2023-05-09T08:29:31.204Z,18.20
2023-05-09T08:31:58.011Z,18.30
2023-05-09T08:34:24.736Z,18.40
2023-05-09T08:36:51.338Z,18.40
2023-05-09T08:39:19.045Z,18.50
2023-05-09T08:41:46.188Z,18.60
2023-05-09T08:44:13.594Z,18.50
2023-05-09T08:46:44.201Z,18.30
2023-05-09T08:49:11.370Z,18.10
2023-05-09T08:51:38.172Z,18.00
2023-05-09T08:54:09.059Z,18.00
2023-05-09T08:56:35.826Z,17.90
2023-05-09T08:59:03.874Z,18.00
2023-05-09T09:01:33.148Z,17.90
2023-05-09T09:04:01.126Z,17.90
2023-05-09T09:06:30.118Z,18.00
2023-05-09T09:08:59.053Z,18.00
2023-05-09T09:11:26.255Z,18.30
2023-05-09T09:13:54.188Z,18.60
2023-05-09T09:16:22.814Z,18.50
2023-05-09T09:18:52.474Z,18.60
2023-05-09T09:21:20.223Z,18.90
2023-05-09T09:23:48.740Z,19.10
2023-05-09T09:26:15.847Z,19.70
2023-05-09T09:28:42.961Z,20.20
2023-05-09T09:31:31.617Z,20.00
2023-05-09T09:34:02.420Z,20.10
2023-05-09T09:36:30.542Z,20.40
2023-05-09T09:39:00.447Z,20.60
2023-05-09T09:41:40.161Z,20.50
2023-05-09T09:44:07.689Z,20.70
2023-05-09T09:46:55.148Z,20.80
2023-05-09T09:49:26.788Z,21.00
2023-05-09T09:51:58.006Z,21.30
2023-05-09T09:54:28.891Z,21.50
2023-05-09T09:56:56.985Z,21.20
2023-05-09T09:59:25.686Z,21.00
2023-05-09T10:01:56.117Z,20.40
2023-05-09T10:04:23.200Z,20.10
2023-05-09T10:06:58.073Z,20.00
2023-05-09T10:09:26.108Z,19.80
2023-05-09T10:11:54.258Z,19.90
2023-05-09T10:14:25.843Z,20.50
2023-05-09T10:16:56.020Z,21.40
2023-05-09T10:19:23.345Z,22.10
2023-05-09T10:21:56.169Z,22.40
2023-05-09T10:24:46.156Z,22.90
2023-05-09T10:27:13.995Z,22.80
2023-05-09T10:29:55.406Z,22.70
2023-05-09T10:32:32.088Z,23.10
2023-05-09T10:35:06.998Z,23.20
2023-05-09T10:37:35.351Z,23.20
2023-05-09T10:40:04.264Z,22.90
2023-05-09T10:42:34.328Z,22.90
2023-05-09T10:45:01.401Z,22.10
2023-05-09T10:47:29.600Z,21.40
2023-05-09T10:49:57.896Z,21.00
2023-05-09T10:52:24.549Z,20.70
2023-05-09T10:55:05.040Z,20.10
2023-05-09T10:57:32.370Z,19.80
2023-05-09T11:00:00.440Z,19.10
2023-05-09T11:02:30.888Z,18.50
2023-05-09T11:05:13.877Z,18.10
2023-05-09T11:07:40.691Z,17.80
2023-05-09T11:10:16.045Z,17.70
2023-05-09T11:13:00.017Z,17.70
2023-05-09T11:15:27.739Z,17.70
2023-05-09T11:18:09.631Z,17.70
2023-05-09T11:20:43.589Z,17.70
2023-05-09T11:23:11.864Z,17.80
2023-05-09T11:25:43.029Z,18.00
2023-05-09T11:28:11.748Z,18.40
2023-05-09T11:30:40.426Z,18.90
2023-05-09T11:33:21.324Z,19.50
2023-05-09T11:35:48.358Z,20.20
2023-05-09T11:38:21.662Z,20.90
2023-05-09T11:40:49.404Z,21.90
2023-05-09T11:43:18.353Z,22.70
2023-05-09T11:45:46.486Z,23.20
2023-05-09T11:48:13.163Z,23.60
2023-05-09T11:50:41.182Z,23.90
2023-05-09T11:53:12.347Z,24.50
2023-05-09T11:55:41.316Z,25.00
2023-05-09T11:58:09.611Z,24.60
2023-05-09T12:00:43.518Z,25.20
2023-05-09T12:03:10.757Z,25.40
2023-05-09T12:05:39.558Z,24.80
2023-05-09T12:08:06.951Z,24.70
2023-05-09T12:10:39.158Z,24.90
2023-05-09T12:13:05.978Z,25.70
2023-05-09T12:15:39.007Z,26.00
2023-05-09T12:18:08.641Z,26.40
2023-05-09T12:20:47.114Z,25.90
2023-05-09T12:23:17.129Z,25.90
2023-05-09T12:25:49.609Z,26.10
2023-05-09T12:28:17.454Z,25.80
2023-05-09T12:30:44.989Z,25.90
2023-05-09T12:33:12.712Z,25.50
2023-05-09T12:35:40.254Z,24.80
2023-05-09T12:38:06.906Z,24.40
2023-05-09T12:40:33.815Z,24.60
2023-05-09T12:43:02.651Z,24.70
2023-05-09T12:45:32.802Z,24.60
2023-05-09T12:48:00.839Z,24.20
2023-05-09T12:50:36.694Z,23.60
2023-05-09T12:53:06.803Z,23.80
2023-05-09T12:55:43.924Z,23.80
2023-05-09T12:58:14.998Z,24.10
2023-05-09T13:00:45.652Z,23.90
2023-05-09T13:03:42.398Z,24.10
2023-05-09T13:06:13.913Z,24.70
2023-05-09T13:08:43.770Z,24.60
2023-05-09T13:11:16.763Z,24.20
2023-05-09T13:13:43.863Z,23.90
2023-05-09T13:16:14.998Z,24.10
2023-05-09T13:18:44.296Z,23.50
2023-05-09T13:21:10.983Z,23.20
2023-05-09T13:23:37.652Z,23.60
2023-05-09T13:26:04.528Z,23.60
2023-05-09T13:28:31.198Z,23.10
2023-05-09T13:30:59.127Z,22.80
2023-05-09T13:33:26.792Z,22.80
2023-05-09T13:35:54.011Z,22.90
2023-05-09T13:38:20.831Z,22.90
2023-05-09T13:40:50.634Z,23.00
2023-05-09T13:43:17.279Z,23.10
2023-05-09T13:45:47.133Z,23.10
2023-05-09T13:48:13.898Z,23.20
2023-05-09T13:50:40.567Z,23.30
2023-05-09T13:53:07.529Z,23.70
2023-05-09T13:55:35.186Z,24.00
2023-05-09T13:58:01.870Z,24.10
2023-05-09T14:00:28.616Z,24.30
2023-05-09T14:02:55.262Z,24.40
2023-05-09T14:05:22.608Z,24.40
2023-05-09T14:07:49.430Z,24.30
2023-05-09T14:10:17.301Z,24.40
2023-05-09T14:12:45.313Z,24.20
2023-05-09T14:15:12.400Z,24.10
2023-05-09T14:17:39.980Z,24.10
2023-05-09T14:20:07.213Z,23.80
2023-05-09T14:22:33.858Z,23.30
2023-05-09T14:25:00.473Z,23.10
2023-05-09T14:27:27.514Z,22.90
2023-05-09T14:29:54.317Z,22.70
2023-05-09T14:32:21.142Z,22.60
2023-05-09T14:34:52.186Z,22.50
2023-05-09T14:37:18.857Z,22.50
2023-05-09T14:39:45.500Z,22.60
2023-05-09T14:42:16.539Z,22.80
2023-05-09T14:44:43.230Z,23.10
2023-05-09T14:47:10.220Z,23.20
2023-05-09T14:49:37.790Z,23.40
2023-05-09T14:52:04.544Z,23.20
2023-05-09T14:54:31.624Z,23.10
2023-05-09T14:57:01.447Z,22.80
2023-05-09T14:59:28.044Z,22.60
2023-05-09T15:01:54.777Z,22.20
2023-05-09T15:04:22.106Z,21.90
2023-05-09T15:06:48.818Z,21.70
2023-05-09T15:09:15.511Z,21.60
2023-05-09T15:11:48.140Z,21.60
2023-05-09T15:14:16.577Z,21.50
2023-05-09T15:16:43.647Z,21.60
2023-05-09T15:19:10.502Z,21.40
2023-05-09T15:21:37.210Z,21.20
2023-05-09T15:24:04.955Z,21.10
2023-05-09T15:26:32.013Z,21.00
2023-05-09T15:28:58.738Z,20.90
2023-05-09T15:31:25.749Z,20.80
2023-05-09T15:33:52.565Z,20.80
2023-05-09T15:36:19.599Z,20.70
2023-05-09T15:38:49.380Z,20.80
2023-05-09T15:41:16.663Z,20.80
2023-05-09T15:43:45.526Z,20.90
2023-05-09T15:46:12.210Z,21.00
2023-05-09T15:48:39.238Z,21.10
2023-05-09T15:51:06.357Z,21.20
2023-05-09T15:53:33.030Z,21.20
2023-05-09T15:56:00.329Z,20.80
2023-05-09T15:58:27.994Z,20.50
2023-05-09T16:00:57.456Z,20.30
2023-05-09T16:03:24.981Z,20.10
2023-05-09T16:05:52.888Z,19.80
2023-05-09T16:08:19.617Z,19.50
2023-05-09T16:10:49.000Z,19.30
2023-05-09T16:13:19.124Z,19.20
2023-05-09T16:15:47.812Z,19.20
2023-05-09T16:18:14.728Z,19.10
2023-05-09T16:20:43.888Z,19.10
2023-05-09T16:23:10.999Z,19.00
2023-05-09T16:25:38.094Z,19.00
2023-05-09T16:28:06.983Z,18.70
2023-05-09T16:30:33.741Z,18.50
2023-05-09T16:33:00.522Z,18.30
2023-05-09T16:35:27.239Z,18.30
2023-05-09T16:37:53.901Z,18.20
2023-05-09T16:40:20.928Z,18.10
2023-05-09T16:42:47.937Z,18.10
2023-05-09T16:45:14.581Z,18.20
2023-05-09T16:47:41.346Z,18.10
2023-05-09T16:50:08.496Z,18.10
2023-05-09T16:52:35.191Z,18.00
2023-05-09T16:55:01.878Z,18.00
2023-05-09T16:57:28.601Z,18.10
2023-05-09T16:59:55.617Z,18.10
2023-05-09T17:02:22.666Z,18.10
2023-05-09T17:04:49.373Z,18.10
2023-05-09T17:07:16.369Z,18.00
2023-05-09T17:09:43.258Z,17.80
2023-05-09T17:12:16.281Z,17.60
2023-05-09T17:14:42.984Z,17.50
2023-05-09T17:17:09.760Z,17.40
2023-05-09T17:19:36.750Z,17.30
2023-05-09T17:22:05.810Z,17.20
2023-05-09T17:24:32.546Z,17.10
2023-05-09T17:27:02.425Z,17.10
2023-05-09T17:29:30.587Z,17.10
2023-05-09T17:32:00.566Z,17.10
2023-05-09T17:34:28.115Z,17.10
2023-05-09T17:36:54.861Z,17.10
2023-05-09T17:39:22.053Z,17.10
2023-05-09T17:41:48.669Z,17.00
2023-05-09T17:44:15.819Z,16.80
2023-05-09T17:46:43.091Z,16.50
2023-05-09T17:49:11.225Z,16.10
2023-05-09T17:51:37.842Z,15.80
2023-05-09T17:54:05.570Z,15.60
2023-05-09T17:56:32.255Z,15.40
2023-05-09T17:58:59.611Z,15.30
2023-05-09T18:01:26.634Z,15.10
2023-05-09T18:03:54.103Z,15.00
2023-05-09T18:06:21.089Z,14.90
2023-05-09T18:08:48.334Z,14.90
2023-05-09T18:11:15.138Z,14.80
2023-05-09T18:13:41.969Z,14.90
2023-05-09T18:16:08.757Z,14.80
2023-05-09T18:18:38.507Z,14.70
2023-05-09T18:21:05.379Z,14.70
2023-05-09T18:23:35.152Z,14.70
2023-05-09T18:26:01.970Z,14.70
2023-05-09T18:28:28.704Z,14.60
2023-05-09T18:30:59.013Z,14.60
2023-05-09T18:33:28.071Z,14.50
2023-05-09T18:35:55.561Z,14.40
2023-05-09T18:38:23.523Z,14.30
2023-05-09T18:40:52.206Z,14.30
2023-05-09T18:43:21.475Z,14.30
2023-05-09T18:45:49.044Z,14.30
2023-05-09T18:48:16.838Z,14.30
2023-05-09T18:50:43.513Z,14.30
2023-05-09T18:53:10.264Z,14.30
2023-05-09T18:55:37.008Z,14.20
2023-05-09T18:58:03.814Z,14.20
2023-05-09T19:00:30.924Z,14.20
2023-05-09T19:02:57.700Z,14.20
2023-05-09T19:05:26.130Z,14.20
2023-05-09T19:07:54.134Z,14.20
2023-05-09T19:10:21.557Z,14.20
2023-05-09T19:12:49.207Z,14.20
2023-05-09T19:15:16.080Z,14.10
2023-05-09T19:17:44.366Z,14.10
2023-05-09T19:20:12.507Z,14.10
2023-05-09T19:22:41.467Z,14.10
2023-05-09T19:25:08.710Z,14.10
2023-05-09T19:27:35.550Z,14.10
2023-05-09T19:30:04.370Z,14.10
2023-05-09T19:32:31.840Z,14.10
2023-05-09T19:34:59.172Z,14.00
2023-05-09T19:37:25.857Z,13.90
2023-05-09T19:39:52.781Z,13.90
2023-05-09T19:42:22.084Z,13.90
2023-05-09T19:44:48.761Z,13.90
2023-05-09T19:47:15.493Z,13.90
2023-05-09T19:49:45.549Z,13.90
2023-05-09T19:52:12.333Z,13.90
2023-05-09T19:54:41.326Z,13.90
2023-05-09T19:57:11.033Z,13.90
2023-05-09T19:59:37.823Z,13.90
2023-05-09T20:02:04.598Z,13.90
2023-05-09T20:04:37.164Z,13.90
2023-05-09T20:07:04.737Z,13.90
2023-05-09T20:09:32.874Z,13.90
2023-05-09T20:12:03.073Z,13.90
2023-05-09T20:14:29.870Z,13.90
2023-05-09T20:16:59.172Z,13.90
2023-05-09T20:19:25.998Z,13.90
2023-05-09T20:21:52.832Z,13.90
2023-05-09T20:24:20.344Z,13.90
2023-05-09T20:26:46.959Z,13.90
2023-05-09T20:29:13.758Z,13.90
2023-05-09T20:31:47.556Z,13.80
2023-05-09T20:34:17.740Z,13.80
2023-05-09T20:36:51.446Z,13.80
2023-05-09T20:39:20.564Z,13.80
2023-05-09T20:41:59.307Z,13.70
2023-05-09T20:44:26.009Z,13.70
2023-05-09T20:46:52.764Z,13.70
2023-05-09T20:49:19.521Z,13.70
2023-05-09T20:51:46.176Z,13.70
2023-05-09T20:54:12.879Z,13.70
2023-05-09T20:56:39.584Z,13.70
2023-05-09T20:59:06.296Z,13.70
2023-05-09T21:01:36.622Z,13.70
2023-05-09T21:04:05.573Z,13.70
2023-05-09T21:06:33.635Z,13.70
2023-05-09T21:09:00.422Z,13.70
2023-05-09T21:11:27.151Z,13.70
2023-05-09T21:13:54.091Z,13.70
2023-05-09T21:16:20.828Z,13.70
2023-05-09T21:18:47.568Z,13.70
2023-05-09T21:21:14.623Z,13.70
2023-05-09T21:23:41.252Z,13.60
2023-05-09T21:26:07.886Z,13.70
2023-05-09T21:28:34.561Z,13.70
2023-05-09T21:31:02.645Z,13.70
2023-05-09T21:33:29.743Z,13.70
2023-05-09T21:35:59.295Z,13.70
2023-05-09T21:38:26.019Z,13.70
2023-05-09T21:40:52.689Z,13.70
2023-05-09T21:43:19.642Z,13.70
2023-05-09T21:45:46.464Z,13.70
2023-05-09T21:48:14.225Z,13.60
2023-05-09T21:50:43.713Z,13.70
2023-05-09T21:53:10.823Z,13.70
2023-05-09T21:55:37.474Z,13.60
2023-05-09T21:58:04.148Z,13.60
2023-05-09T22:00:30.859Z,13.60
2023-05-09T22:02:58.592Z,13.60
2023-05-09T22:05:25.545Z,13.60
2023-05-09T22:07:52.169Z,13.60
2023-05-09T22:10:19.046Z,13.60
2023-05-09T22:12:46.120Z,13.60
2023-05-09T22:15:15.353Z,13.60
2023-05-09T22:17:42.014Z,13.60
2023-05-09T22:20:09.318Z,13.60
2023-05-09T22:22:36.066Z,13.60
2023-05-09T22:25:04.362Z,13.60
2023-05-09T22:27:31.081Z,13.70
2023-05-09T22:29:57.885Z,13.70
2023-05-09T22:32:24.566Z,13.70
2023-05-09T22:34:51.250Z,13.70
2023-05-09T22:37:17.850Z,13.70
2023-05-09T22:39:44.696Z,13.70
2023-05-09T22:42:18.508Z,13.60
2023-05-09T22:44:47.065Z,13.60
2023-05-09T22:47:13.824Z,13.60
2023-05-09T22:49:40.500Z,13.60
2023-05-09T22:52:10.385Z,13.60
2023-05-09T22:54:37.096Z,13.50
2023-05-09T22:57:03.815Z,13.20
2023-05-09T22:59:32.093Z,13.00
2023-05-09T23:01:59.180Z,12.80
2023-05-09T23:04:25.859Z,12.70
2023-05-09T23:06:52.525Z,12.60
2023-05-09T23:09:19.357Z,12.50
2023-05-09T23:11:46.721Z,12.50
2023-05-09T23:14:13.431Z,12.40
2023-05-09T23:16:40.118Z,12.40
2023-05-09T23:19:06.738Z,12.30
2023-05-09T23:21:34.254Z,12.20
2023-05-09T23:24:00.970Z,12.20
2023-05-09T23:26:27.629Z,12.20
2023-05-09T23:28:55.445Z,12.10
2023-05-09T23:31:22.148Z,12.10
2023-05-09T23:33:50.061Z,12.10
2023-05-09T23:36:16.881Z,12.00
2023-05-09T23:38:43.622Z,12.10
2023-05-09T23:41:10.957Z,12.00
2023-05-09T23:43:38.033Z,12.00
2023-05-09T23:46:04.740Z,11.90
2023-05-09T23:48:31.570Z,11.90
2023-05-09T23:50:58.185Z,11.90
2023-05-09T23:53:24.847Z,11.90
2023-05-09T23:55:51.529Z,11.90
2023-05-09T23:58:22.277Z,11.90
